Ana Sayfa
METAR-TAF:

METAR-TAF

Havaalanları :

Cherry Point, Kuzey Carolina, Amerika Birleşik Devletleri

Enlem: 34-53-52N, Boylam: 076-52-51W, yükseklik: 8 m

Güncel hava durumu gözlemi

Rapor saat 02:56 UTC de 10 dakika önce yapıldı.
Rüzgar güneybatıdan 3 kt
Sıcaklık 17°C
Nem 88%
Basınç 1019 hPa
Görüş mesafesi: 11.3 km
Açık gökyüzü

METAR: KNKT 070256Z 22003KT 7SM SKC 17/15 A3009 RMK SLP185 T01670150

Saat: 23:06 (03:06 UTC)

Tahmin

Ayın 07'si saat 03 UTC'den ayın 08'si saat 03 UTC'ye kadar geçerli Tahmin
Rüzgar değişken yönden 6 kt
Görüş mesafesi 10 km veya daha fazla
Açık gökyüzü
Ayın 07'si saat 1700 UTC'den
Rüzgar güneybatıdan 7 kt
Görüş mesafesi 10 km veya daha fazla
5000 ft yükseklikte az bulutlu

TAF: KNKT 0703/0803 VRB06KT 9999 SKC QNH3005INS FM071700 23007KT 9999 FEW050 QNH3002INS T16/0709Z T27/0720Z

4.000'den fazla havaalanı için hava durumu gözlemleri ve tahminleri (METAR ve TAF raporları).

Kullanılabilir istasyonlar harita üzerinde sarı ve kırmızı noktalarla gösterilir.

İstasyonun adını görmek için fareyi noktanın üzerinde gezdirin.

Sonrasında hava gözlem ve tahminlerini görmek için tıklayın.

Haritayı değiştirmek için: yaklaştırmak için siyah artı işaretli yeşil düğmeye ve uzaklaştırmak için de eksi işaretli düğmeye hızla tıklayın; bitişik haritalar için yeşil okları kullanın.


METAR-TAF: